createdAt,value
2018-04-24T00:00:06.114Z,6.90
2018-04-24T00:02:32.754Z,5.90
2018-04-24T00:04:59.420Z,5.80
2018-04-24T00:07:26.096Z,5.90
2018-04-24T00:09:52.846Z,6.30
2018-04-24T00:12:19.451Z,6.17
2018-04-24T00:14:46.095Z,6.07
2018-04-24T00:17:12.891Z,6.63
2018-04-24T00:19:39.559Z,5.67
2018-04-24T00:22:06.214Z,6.63
2018-04-24T00:24:32.888Z,7.87
2018-04-24T00:26:59.538Z,7.30
2018-04-24T00:29:26.193Z,8.53
2018-04-24T00:31:52.866Z,9.10
2018-04-24T00:34:19.567Z,10.53
2018-04-24T00:36:46.207Z,10.38
2018-04-24T00:39:12.859Z,10.93
2018-04-24T00:41:39.603Z,13.40
2018-04-24T00:44:06.291Z,13.27
2018-04-24T00:46:32.951Z,14.40
2018-04-24T00:48:59.630Z,13.63
2018-04-24T00:51:26.286Z,14.87
2018-04-24T00:53:52.942Z,12.27
2018-04-24T00:56:19.609Z,15.10
2018-04-24T00:58:46.265Z,14.20
2018-04-24T01:01:13.137Z,13.70
2018-04-24T01:03:39.794Z,13.80
2018-04-24T01:06:06.453Z,16.57
2018-04-24T01:08:33.127Z,17.80
2018-04-24T01:11:01.872Z,16.40
2018-04-24T01:13:28.552Z,16.70
2018-04-24T01:15:55.251Z,15.83
2018-04-24T01:18:21.924Z,17.80
2018-04-24T01:20:48.600Z,20.63
2018-04-24T01:23:15.243Z,20.00
2018-04-24T01:25:42.210Z,18.30
2018-04-24T01:28:08.859Z,20.03
2018-04-24T01:30:35.523Z,20.00
2018-04-24T01:33:02.200Z,20.13
2018-04-24T01:35:28.850Z,22.03
2018-04-24T01:37:55.531Z,20.60
2018-04-24T01:40:22.210Z,20.27
2018-04-24T01:42:48.864Z,22.00
2018-04-24T01:45:15.540Z,20.85
2018-04-24T01:47:42.191Z,20.40
2018-04-24T01:50:09.135Z,22.40
2018-04-24T01:52:35.798Z,22.57
2018-04-24T01:55:02.450Z,23.20
2018-04-24T01:57:29.127Z,22.40
2018-04-24T01:59:55.794Z,25.12
2018-04-24T02:02:22.486Z,24.70
2018-04-24T02:04:49.160Z,26.07
2018-04-24T02:07:16.742Z,25.70
2018-04-24T02:09:43.486Z,24.93
2018-04-24T02:12:10.162Z,26.17
2018-04-24T02:14:36.871Z,24.57
2018-04-24T02:17:03.544Z,24.03
2018-04-24T02:19:30.248Z,25.00
2018-04-24T02:21:56.925Z,24.60
2018-04-24T02:24:23.596Z,23.90
2018-04-24T02:26:50.305Z,24.50
2018-04-24T02:29:17.141Z,23.80
2018-04-24T02:31:44.295Z,25.47
2018-04-24T02:34:10.964Z,23.50
2018-04-24T02:36:37.637Z,25.13
2018-04-24T02:39:04.338Z,21.85
2018-04-24T02:41:31.022Z,21.67
2018-04-24T02:43:57.729Z,22.60
2018-04-24T02:46:24.401Z,21.20
2018-04-24T02:48:51.300Z,21.27
2018-04-24T02:51:17.979Z,19.43
2018-04-24T02:53:44.657Z,21.00
2018-04-24T02:56:11.351Z,19.60
2018-04-24T02:58:38.022Z,19.42
2018-04-24T03:01:04.707Z,19.35
2018-04-24T03:03:31.363Z,18.37
2018-04-24T03:05:58.035Z,21.37
2018-04-24T03:08:24.688Z,19.40
2018-04-24T03:10:51.352Z,16.47
2018-04-24T03:13:18.023Z,17.67
2018-04-24T03:15:44.679Z,14.27
2018-04-24T03:18:11.579Z,14.60
2018-04-24T03:20:38.231Z,15.60
2018-04-24T03:23:04.888Z,16.63
2018-04-24T03:25:31.557Z,15.93
2018-04-24T03:27:58.222Z,14.77
2018-04-24T03:30:24.900Z,14.37
2018-04-24T03:32:51.561Z,15.33
2018-04-24T03:35:18.227Z,12.80
2018-04-24T03:37:44.899Z,12.30
2018-04-24T03:40:11.555Z,13.20
2018-04-24T03:42:38.246Z,12.77
2018-04-24T03:45:04.957Z,12.50
2018-04-24T03:47:31.583Z,13.73
2018-04-24T03:49:58.258Z,13.10
2018-04-24T03:52:24.915Z,11.73
2018-04-24T03:54:51.601Z,12.37
2018-04-24T03:57:18.319Z,13.37
2018-04-24T03:59:44.929Z,13.50
2018-04-24T04:02:11.611Z,14.07
2018-04-24T04:04:38.275Z,12.27
2018-04-24T04:07:05.347Z,12.57
2018-04-24T04:09:32.002Z,11.50
2018-04-24T04:11:58.659Z,13.30
2018-04-24T04:14:25.327Z,11.90
2018-04-24T04:16:52.169Z,12.47
2018-04-24T04:19:24.642Z,12.67
2018-04-24T04:21:57.018Z,13.37
2018-04-24T04:24:38.574Z,12.05
2018-04-24T04:27:05.231Z,12.80
2018-04-24T04:29:31.908Z,11.97
2018-04-24T04:31:58.560Z,20.13
2018-04-24T04:34:25.230Z,14.20
2018-04-24T04:36:51.890Z,12.70
2018-04-24T04:39:18.543Z,12.80
2018-04-24T04:41:45.425Z,11.63
2018-04-24T04:44:12.787Z,12.93
2018-04-24T04:46:39.473Z,11.10
2018-04-24T04:49:06.131Z,11.83
2018-04-24T04:51:32.782Z,11.57
2018-04-24T04:53:59.459Z,11.43
2018-04-24T04:56:26.111Z,11.13
2018-04-24T04:58:53.082Z,10.33
2018-04-24T05:01:19.738Z,9.40
2018-04-24T05:03:46.409Z,10.23
2018-04-24T05:06:13.103Z,10.30
2018-04-24T05:08:39.768Z,10.50
2018-04-24T05:11:06.447Z,11.83
2018-04-24T05:13:33.115Z,10.73
2018-04-24T05:15:59.762Z,10.30
2018-04-24T05:18:26.443Z,9.27
2018-04-24T05:20:53.090Z,9.77
2018-04-24T05:23:19.765Z,9.63
2018-04-24T05:25:46.418Z,11.40
2018-04-24T05:28:13.097Z,12.43
2018-04-24T05:30:39.785Z,12.17
2018-04-24T05:33:06.431Z,11.30
2018-04-24T05:35:33.110Z,10.10
2018-04-24T05:37:59.781Z,12.17
2018-04-24T05:40:26.452Z,13.57
2018-04-24T05:42:53.143Z,13.57
2018-04-24T05:45:19.887Z,13.07
2018-04-24T05:47:46.501Z,12.87
2018-04-24T05:50:13.152Z,12.10
2018-04-24T05:52:39.806Z,12.43
2018-04-24T05:55:06.479Z,13.77
2018-04-24T05:57:33.141Z,13.13
2018-04-24T05:59:59.841Z,11.77
2018-04-24T06:02:26.559Z,10.57
2018-04-24T06:04:53.229Z,10.63
2018-04-24T06:07:19.906Z,10.77
2018-04-24T06:09:46.562Z,10.73
2018-04-24T06:12:13.239Z,10.10
2018-04-24T06:14:39.895Z,10.40
2018-04-24T06:17:06.542Z,9.47
2018-04-24T06:19:33.194Z,9.87
2018-04-24T06:21:59.857Z,13.07
2018-04-24T06:24:26.707Z,9.18
2018-04-24T06:26:53.357Z,11.00
2018-04-24T06:29:20.012Z,9.63
2018-04-24T06:31:46.682Z,10.70
2018-04-24T06:34:13.343Z,11.13
2018-04-24T06:36:40.018Z,9.93
2018-04-24T06:39:06.672Z,9.67
2018-04-24T06:41:33.358Z,10.70
2018-04-24T06:44:00.029Z,10.70
2018-04-24T06:46:26.686Z,12.70
2018-04-24T06:48:53.351Z,9.60
2018-04-24T06:51:20.010Z,10.33
2018-04-24T06:53:46.690Z,14.30
2018-04-24T06:56:13.351Z,11.03
2018-04-24T06:58:40.016Z,9.50
2018-04-24T07:01:06.664Z,9.00
2018-04-24T07:03:33.321Z,8.60
2018-04-24T07:05:59.995Z,8.50
2018-04-24T07:08:26.649Z,10.30
2018-04-24T07:10:53.325Z,11.50
2018-04-24T07:13:19.983Z,13.23
2018-04-24T07:15:46.639Z,12.33
2018-04-24T07:18:13.312Z,14.07
2018-04-24T07:20:39.968Z,15.55
2018-04-24T07:23:06.642Z,16.50
2018-04-24T07:25:33.302Z,15.73
2018-04-24T07:27:59.958Z,13.57
2018-04-24T07:30:26.651Z,14.70
2018-04-24T07:32:53.384Z,15.47
2018-04-24T07:35:20.034Z,14.90
2018-04-24T07:37:46.695Z,14.70
2018-04-24T07:40:13.350Z,14.53
2018-04-24T07:42:40.015Z,15.03
2018-04-24T07:45:06.678Z,15.90
2018-04-24T07:47:33.355Z,16.10
2018-04-24T07:50:00.008Z,16.03
2018-04-24T07:52:26.665Z,16.65
2018-04-24T07:54:53.348Z,14.90
2018-04-24T07:57:20.006Z,14.93
2018-04-24T07:59:46.687Z,14.50
2018-04-24T08:02:13.346Z,14.67
2018-04-24T08:04:40.293Z,16.75
2018-04-24T08:07:06.979Z,15.00
2018-04-24T08:09:33.640Z,14.17
2018-04-24T08:12:00.331Z,15.73
2018-04-24T08:14:26.987Z,12.30
2018-04-24T08:16:53.650Z,13.87
2018-04-24T08:19:20.322Z,14.10
2018-04-24T08:21:46.974Z,14.07
2018-04-24T08:24:13.654Z,13.83
2018-04-24T08:26:40.325Z,13.80
2018-04-24T08:29:06.983Z,12.20
2018-04-24T08:31:33.655Z,12.00
2018-04-24T08:34:00.314Z,14.00
2018-04-24T08:36:27.183Z,12.37
2018-04-24T08:38:53.843Z,14.07
2018-04-24T08:41:20.506Z,11.07
2018-04-24T08:43:47.181Z,11.60
2018-04-24T08:46:13.863Z,12.30
2018-04-24T08:48:40.539Z,12.70
2018-04-24T08:51:07.199Z,12.00
2018-04-24T08:53:33.859Z,13.17
2018-04-24T08:56:00.536Z,12.13
2018-04-24T08:58:27.183Z,10.90
2018-04-24T09:00:53.858Z,11.90
2018-04-24T09:03:20.515Z,13.33
2018-04-24T09:05:47.171Z,11.40
2018-04-24T09:08:13.843Z,12.30
2018-04-24T09:10:40.493Z,12.43
2018-04-24T09:13:07.182Z,12.30
2018-04-24T09:15:33.835Z,12.43
2018-04-24T09:18:00.498Z,12.73
2018-04-24T09:20:27.167Z,13.07
2018-04-24T09:22:53.823Z,12.00
2018-04-24T09:25:20.478Z,12.13
2018-04-24T09:27:47.169Z,11.37
2018-04-24T09:30:13.826Z,11.77
2018-04-24T09:32:40.482Z,10.50
2018-04-24T09:35:07.152Z,10.17
2018-04-24T09:37:33.803Z,10.73
2018-04-24T09:40:00.487Z,10.47
2018-04-24T09:42:27.152Z,9.77
2018-04-24T09:44:54.063Z,9.20
2018-04-24T09:47:20.740Z,9.60
2018-04-24T09:49:47.406Z,10.17
2018-04-24T09:52:14.099Z,11.53
2018-04-24T09:54:40.755Z,9.80
2018-04-24T09:57:07.408Z,9.93
2018-04-24T09:59:34.083Z,9.67
2018-04-24T10:02:00.742Z,10.68
2018-04-24T10:04:27.411Z,11.03
2018-04-24T10:06:54.060Z,11.07
2018-04-24T10:09:20.715Z,10.43
2018-04-24T10:11:47.401Z,9.90
2018-04-24T10:14:14.060Z,10.07
2018-04-24T10:16:40.743Z,11.80
2018-04-24T10:19:07.403Z,9.80
2018-04-24T10:21:34.057Z,12.00
2018-04-24T10:24:00.727Z,10.27
2018-04-24T10:26:27.385Z,10.30
2018-04-24T10:28:54.063Z,9.37
2018-04-24T10:31:20.734Z,10.17
2018-04-24T10:33:47.387Z,9.13
2018-04-24T10:36:14.051Z,9.37
2018-04-24T10:38:40.695Z,9.47
2018-04-24T10:41:07.370Z,9.07
2018-04-24T10:43:34.012Z,9.50
2018-04-24T10:46:00.828Z,9.73
2018-04-24T10:48:27.499Z,9.93
2018-04-24T10:50:54.170Z,10.98
2018-04-24T10:53:20.849Z,11.03
2018-04-24T10:55:47.506Z,10.60
2018-04-24T10:58:14.154Z,9.70
2018-04-24T11:00:40.858Z,8.90
2018-04-24T11:03:07.487Z,9.83
2018-04-24T11:05:34.170Z,8.30
2018-04-24T11:08:00.817Z,8.33
2018-04-24T11:10:27.461Z,9.13
2018-04-24T11:12:54.146Z,8.53
2018-04-24T11:15:20.791Z,7.90
2018-04-24T11:17:47.475Z,8.63
2018-04-24T11:20:14.121Z,9.80
2018-04-24T11:22:40.811Z,8.77
2018-04-24T11:25:07.608Z,8.70
2018-04-24T11:27:34.271Z,9.63
2018-04-24T11:30:00.948Z,9.50
2018-04-24T11:32:27.675Z,10.10
2018-04-24T11:34:54.270Z,8.63
2018-04-24T11:37:20.940Z,9.17
2018-04-24T11:39:47.592Z,9.60
2018-04-24T11:42:14.269Z,8.35
2018-04-24T11:44:40.942Z,10.27
2018-04-24T11:47:07.591Z,11.80
2018-04-24T11:49:34.332Z,10.20
2018-04-24T11:52:00.977Z,10.43
2018-04-24T11:54:27.654Z,10.07
2018-04-24T11:56:54.307Z,9.63
2018-04-24T11:59:20.959Z,9.87
2018-04-24T12:01:47.634Z,10.20
2018-04-24T12:04:14.285Z,9.50
2018-04-24T12:06:40.971Z,9.57
2018-04-24T12:09:07.626Z,9.27
2018-04-24T12:11:34.271Z,9.87
2018-04-24T12:14:00.935Z,8.83
2018-04-24T12:16:27.588Z,8.27
2018-04-24T12:18:54.275Z,8.03
2018-04-24T12:21:20.932Z,8.33
2018-04-24T12:23:47.584Z,9.00
2018-04-24T12:26:14.395Z,9.30
2018-04-24T12:28:41.048Z,7.73
2018-04-24T12:31:07.727Z,8.27
2018-04-24T12:33:34.375Z,6.93
2018-04-24T12:36:01.033Z,8.23
2018-04-24T12:38:27.706Z,11.43
2018-04-24T12:40:54.369Z,9.30
2018-04-24T12:43:21.042Z,8.23
2018-04-24T12:45:47.693Z,6.37
2018-04-24T12:48:14.348Z,7.40
2018-04-24T12:50:41.012Z,6.43
2018-04-24T12:53:07.659Z,7.00
2018-04-24T12:55:34.343Z,5.70
2018-04-24T12:58:00.995Z,7.17
2018-04-24T13:00:27.670Z,6.60
2018-04-24T13:02:54.347Z,6.37
2018-04-24T13:05:21.102Z,6.20
2018-04-24T13:07:47.769Z,5.33
2018-04-24T13:10:14.412Z,5.77
2018-04-24T13:12:41.064Z,6.27
2018-04-24T13:15:07.729Z,6.33
2018-04-24T13:17:34.385Z,6.60
2018-04-24T13:20:01.059Z,6.67
2018-04-24T13:22:27.733Z,7.23
2018-04-24T13:24:54.383Z,5.80
2018-04-24T13:27:21.055Z,4.87
2018-04-24T13:29:47.704Z,5.00
2018-04-24T13:32:14.376Z,5.93
2018-04-24T13:34:41.037Z,4.90
2018-04-24T13:37:07.733Z,5.77
2018-04-24T13:39:34.382Z,6.17
2018-04-24T13:42:01.031Z,5.20
2018-04-24T13:44:27.727Z,5.30
2018-04-24T13:46:54.381Z,4.50
2018-04-24T13:49:21.028Z,5.60
2018-04-24T13:51:47.693Z,5.40
2018-04-24T13:54:14.348Z,5.17
2018-04-24T13:56:41.017Z,4.65
2018-04-24T13:59:07.668Z,4.30
2018-04-24T14:01:34.335Z,4.87
2018-04-24T14:04:00.996Z,4.47
2018-04-24T14:06:28.384Z,4.93
2018-04-24T14:08:55.042Z,4.70
2018-04-24T14:11:21.690Z,5.43
2018-04-24T14:13:48.358Z,4.80
2018-04-24T14:16:15.018Z,5.03
2018-04-24T14:18:41.685Z,3.90
2018-04-24T14:21:08.508Z,4.73
2018-04-24T14:23:35.155Z,4.80
2018-04-24T14:26:01.902Z,4.27
2018-04-24T14:28:28.487Z,4.67
2018-04-24T14:30:55.155Z,5.20
2018-04-24T14:33:21.813Z,6.53
2018-04-24T14:35:48.458Z,4.07
2018-04-24T14:38:15.129Z,4.70
2018-04-24T14:40:41.780Z,4.20
2018-04-24T14:43:08.452Z,4.50
2018-04-24T14:45:35.095Z,4.00
2018-04-24T14:48:01.751Z,4.07
2018-04-24T14:50:28.415Z,4.97
2018-04-24T14:52:55.065Z,6.07
2018-04-24T14:55:21.724Z,5.17
2018-04-24T14:57:48.366Z,4.40
2018-04-24T15:00:15.007Z,5.60
2018-04-24T15:02:41.697Z,4.93
2018-04-24T15:05:08.357Z,4.93
2018-04-24T15:07:35.028Z,6.13
2018-04-24T15:10:01.734Z,5.30
2018-04-24T15:12:28.506Z,5.63
2018-04-24T15:14:55.320Z,4.00
2018-04-24T15:17:22.270Z,5.10
2018-04-24T15:19:49.339Z,4.57
2018-04-24T15:22:16.011Z,3.90
2018-04-24T15:24:42.702Z,5.40
2018-04-24T15:27:09.367Z,5.27
2018-04-24T15:29:36.015Z,4.67
2018-04-24T15:32:02.677Z,4.83
2018-04-24T15:34:29.326Z,4.47
2018-04-24T15:36:56.012Z,5.10
2018-04-24T15:39:22.654Z,4.27
2018-04-24T15:41:49.302Z,5.27
2018-04-24T15:44:15.966Z,4.07
2018-04-24T15:46:43.267Z,5.18
2018-04-24T15:49:09.992Z,5.30
2018-04-24T15:51:36.642Z,4.50
2018-04-24T15:54:03.314Z,5.20
2018-04-24T15:56:29.980Z,4.60
2018-04-24T15:58:56.631Z,5.10
2018-04-24T16:01:23.300Z,5.13
2018-04-24T16:03:50.610Z,4.53
2018-04-24T16:06:17.257Z,4.97
2018-04-24T16:08:44.845Z,4.97
2018-04-24T16:11:11.504Z,4.60
2018-04-24T16:13:38.755Z,5.27
2018-04-24T16:16:05.412Z,4.60
2018-04-24T16:18:32.379Z,5.23
2018-04-24T16:20:59.087Z,5.18
2018-04-24T16:23:25.739Z,4.97
2018-04-24T16:25:52.667Z,5.60
2018-04-24T16:28:19.321Z,5.47
2018-04-24T16:30:45.999Z,4.57
2018-04-24T16:33:12.662Z,5.10
2018-04-24T16:35:39.792Z,5.13
2018-04-24T16:38:06.495Z,5.33
2018-04-24T16:40:33.144Z,4.97
2018-04-24T16:42:59.793Z,6.30
2018-04-24T16:45:26.460Z,5.33
2018-04-24T16:47:53.126Z,5.97
2018-04-24T16:50:19.817Z,4.80
2018-04-24T16:52:46.461Z,4.60
2018-04-24T16:55:13.331Z,5.57
2018-04-24T16:57:40.031Z,6.20
2018-04-24T17:00:06.684Z,5.20
2018-04-24T17:02:33.398Z,6.60
2018-04-24T17:05:00.050Z,7.17
2018-04-24T17:07:26.698Z,5.30
2018-04-24T17:09:53.670Z,7.10
2018-04-24T17:12:20.333Z,5.37
2018-04-24T17:14:46.996Z,5.70
2018-04-24T17:17:13.647Z,5.83
2018-04-24T17:19:40.298Z,4.77
2018-04-24T17:22:06.976Z,5.40
2018-04-24T17:24:33.937Z,5.20
2018-04-24T17:27:00.641Z,5.17
2018-04-24T17:29:27.287Z,6.60
2018-04-24T17:31:53.981Z,5.73
2018-04-24T17:34:20.692Z,9.90
2018-04-24T17:36:47.344Z,7.47
2018-04-24T17:39:14.034Z,5.70
2018-04-24T17:41:40.683Z,6.63
2018-04-24T17:44:07.328Z,5.90
2018-04-24T17:46:33.994Z,6.47
2018-04-24T17:49:00.638Z,7.33
2018-04-24T17:51:27.314Z,9.30
2018-04-24T17:53:53.986Z,7.23
2018-04-24T17:56:20.627Z,5.97
2018-04-24T17:58:47.795Z,7.30
2018-04-24T18:01:15.446Z,7.28
2018-04-24T18:03:42.190Z,7.27
2018-04-24T18:06:08.838Z,6.00
2018-04-24T18:08:35.594Z,5.90
2018-04-24T18:11:02.779Z,7.30
2018-04-24T18:13:29.426Z,6.80
2018-04-24T18:15:56.195Z,6.57
2018-04-24T18:18:22.854Z,6.50
2018-04-24T18:20:50.365Z,6.70
2018-04-24T18:23:17.068Z,6.00
2018-04-24T18:25:43.720Z,13.90
2018-04-24T18:28:10.387Z,8.43
2018-04-24T18:30:37.028Z,9.10
2018-04-24T18:33:03.695Z,9.37
2018-04-24T18:35:30.344Z,8.00
2018-04-24T18:37:56.997Z,8.70
2018-04-24T18:40:23.703Z,9.20
2018-04-24T18:42:50.352Z,9.73
2018-04-24T18:45:17.059Z,8.33
2018-04-24T18:47:43.707Z,8.23
2018-04-24T18:50:10.367Z,7.03
2018-04-24T18:52:37.080Z,7.80
2018-04-24T18:55:03.727Z,7.37
2018-04-24T18:57:30.391Z,6.77
2018-04-24T18:59:57.069Z,8.87
2018-04-24T19:02:23.766Z,9.77
2018-04-24T19:04:50.472Z,9.50
2018-04-24T19:07:17.148Z,8.53
2018-04-24T19:09:43.819Z,8.10
2018-04-24T19:12:10.512Z,12.50
2018-04-24T19:14:37.170Z,16.23
2018-04-24T19:17:03.841Z,12.13
2018-04-24T19:19:30.518Z,9.70
2018-04-24T19:21:57.208Z,9.23
2018-04-24T19:24:29.575Z,9.97
2018-04-24T19:26:56.347Z,9.33
2018-04-24T19:29:23.006Z,10.30
2018-04-24T19:31:55.379Z,9.40
2018-04-24T19:34:22.047Z,9.60
2018-04-24T19:36:48.768Z,9.27
2018-04-24T19:39:21.223Z,10.07
2018-04-24T19:41:48.569Z,8.27
2018-04-24T19:44:15.260Z,8.23
2018-04-24T19:46:41.970Z,14.73
2018-04-24T19:49:14.295Z,10.07
2018-04-24T19:51:40.961Z,10.33
2018-04-24T19:54:07.641Z,8.30
2018-04-24T19:56:34.412Z,9.00
2018-04-24T19:59:01.092Z,10.30
2018-04-24T20:01:27.764Z,10.13
2018-04-24T20:03:54.516Z,9.97
2018-04-24T20:06:21.166Z,9.38
2018-04-24T20:08:47.815Z,9.77
2018-04-24T20:11:14.803Z,9.00
2018-04-24T20:13:41.485Z,8.30
2018-04-24T20:16:08.180Z,9.50
2018-04-24T20:18:34.886Z,9.63
2018-04-24T20:21:01.547Z,8.97
2018-04-24T20:23:28.231Z,9.53
2018-04-24T20:25:54.891Z,9.70
2018-04-24T20:28:21.798Z,10.17
2018-04-24T20:30:48.450Z,9.07
2018-04-24T20:33:15.098Z,9.50
2018-04-24T20:35:41.853Z,9.90
2018-04-24T20:38:08.550Z,10.03
2018-04-24T20:40:35.263Z,8.83
2018-04-24T20:43:01.959Z,12.17
2018-04-24T20:45:28.635Z,13.70
2018-04-24T20:47:55.331Z,11.37
2018-04-24T20:50:22.000Z,10.47
2018-04-24T20:52:48.699Z,11.20
2018-04-24T20:55:15.398Z,10.47
2018-04-24T20:57:42.053Z,10.83
2018-04-24T21:00:08.755Z,11.10
2018-04-24T21:02:35.482Z,11.57
2018-04-24T21:05:02.162Z,10.90
2018-04-24T21:07:28.862Z,11.20
2018-04-24T21:09:55.522Z,10.20
2018-04-24T21:12:22.192Z,11.00
2018-04-24T21:14:48.846Z,11.20
2018-04-24T21:17:15.575Z,11.27
2018-04-24T21:19:42.598Z,11.75
2018-04-24T21:22:09.259Z,10.30
2018-04-24T21:24:35.935Z,12.03
2018-04-24T21:27:02.608Z,11.93
2018-04-24T21:29:29.330Z,11.70
2018-04-24T21:31:56.015Z,10.90
2018-04-24T21:34:22.675Z,10.37
2018-04-24T21:36:49.359Z,10.30
2018-04-24T21:39:16.022Z,13.40
2018-04-24T21:41:42.707Z,11.87
2018-04-24T21:44:09.364Z,12.20
2018-04-24T21:46:36.047Z,11.47
2018-04-24T21:49:02.727Z,12.77
2018-04-24T21:51:29.406Z,12.20
2018-04-24T21:53:56.087Z,13.00
2018-04-24T21:56:22.734Z,11.60
2018-04-24T21:58:49.415Z,11.90
2018-04-24T22:01:16.066Z,11.90
2018-04-24T22:03:42.733Z,12.53
2018-04-24T22:06:09.415Z,14.50
2018-04-24T22:08:36.077Z,14.03
2018-04-24T22:11:02.754Z,14.63
2018-04-24T22:13:29.479Z,13.77
2018-04-24T22:15:56.087Z,17.43
2018-04-24T22:18:22.988Z,16.50
2018-04-24T22:20:50.345Z,13.13
2018-04-24T22:23:17.021Z,14.93
2018-04-24T22:25:43.675Z,14.93
2018-04-24T22:28:10.347Z,14.27
2018-04-24T22:30:37.015Z,14.20
2018-04-24T22:33:03.681Z,13.10
2018-04-24T22:35:30.366Z,11.80
2018-04-24T22:37:57.024Z,13.13
2018-04-24T22:40:23.713Z,12.70
2018-04-24T22:42:50.367Z,14.20
2018-04-24T22:45:17.034Z,12.77
2018-04-24T22:47:43.688Z,13.93
2018-04-24T22:50:10.346Z,15.50
2018-04-24T22:52:37.015Z,16.63
2018-04-24T22:55:03.667Z,15.03
2018-04-24T22:57:30.343Z,15.63
2018-04-24T22:59:56.996Z,13.60
2018-04-24T23:02:23.647Z,14.23
2018-04-24T23:04:50.323Z,13.97
2018-04-24T23:07:16.976Z,14.50
2018-04-24T23:09:49.368Z,13.30
2018-04-24T23:12:21.792Z,14.47
2018-04-24T23:14:54.788Z,13.13
2018-04-24T23:17:27.231Z,14.10
2018-04-24T23:19:59.847Z,12.30
2018-04-24T23:22:31.392Z,13.27
2018-04-24T23:24:58.336Z,12.80
2018-04-24T23:27:25.003Z,12.10
2018-04-24T23:29:51.650Z,13.10
2018-04-24T23:32:18.334Z,13.00
2018-04-24T23:34:45.024Z,13.73
2018-04-24T23:37:11.672Z,10.97
2018-04-24T23:39:38.342Z,13.43
2018-04-24T23:42:05.049Z,14.05
2018-04-24T23:44:31.722Z,13.17
2018-04-24T23:46:58.371Z,13.23
2018-04-24T23:49:25.034Z,13.20
2018-04-24T23:51:51.699Z,13.33
2018-04-24T23:54:18.346Z,13.80
2018-04-24T23:56:45.022Z,13.93
2018-04-24T23:59:11.683Z,14.40
